sensor_id;sensor_type;location;lat;lon;timestamp;P1;durP1;ratioP1;P2;durP2;ratioP2
49029;SDS011;43337;52.070;4.508;2022-10-19T00:01:45;7.00;;;3.30;;
49029;SDS011;43337;52.070;4.508;2022-10-19T00:04:11;9.30;;;3.72;;
49029;SDS011;43337;52.070;4.508;2022-10-19T00:06:36;9.18;;;3.90;;
49029;SDS011;43337;52.070;4.508;2022-10-19T00:09:06;8.13;;;4.05;;
49029;SDS011;43337;52.070;4.508;2022-10-19T00:11:35;11.60;;;4.47;;
49029;SDS011;43337;52.070;4.508;2022-10-19T00:14:03;9.00;;;4.05;;
49029;SDS011;43337;52.070;4.508;2022-10-19T00:16:32;9.77;;;3.92;;
49029;SDS011;43337;52.070;4.508;2022-10-19T00:19:04;11.27;;;3.63;;
49029;SDS011;43337;52.070;4.508;2022-10-19T00:21:33;9.70;;;3.30;;
49029;SDS011;43337;52.070;4.508;2022-10-19T00:23:59;9.90;;;4.03;;
49029;SDS011;43337;52.070;4.508;2022-10-19T00:26:26;10.70;;;3.65;;
49029;SDS011;43337;52.070;4.508;2022-10-19T00:28:53;11.70;;;3.65;;
49029;SDS011;43337;52.070;4.508;2022-10-19T00:31:19;11.18;;;3.95;;
49029;SDS011;43337;52.070;4.508;2022-10-19T00:33:45;13.18;;;4.13;;
49029;SDS011;43337;52.070;4.508;2022-10-19T00:38:48;9.00;;;3.97;;
49029;SDS011;43337;52.070;4.508;2022-10-19T00:41:14;14.13;;;4.18;;
49029;SDS011;43337;52.070;4.508;2022-10-19T00:46:23;9.05;;;3.72;;
49029;SDS011;43337;52.070;4.508;2022-10-19T00:48:52;10.40;;;3.72;;
49029;SDS011;43337;52.070;4.508;2022-10-19T00:51:19;10.85;;;4.47;;
49029;SDS011;43337;52.070;4.508;2022-10-19T00:53:45;11.73;;;3.67;;
49029;SDS011;43337;52.070;4.508;2022-10-19T00:56:11;13.13;;;4.13;;
49029;SDS011;43337;52.070;4.508;2022-10-19T00:58:38;9.75;;;4.38;;
49029;SDS011;43337;52.070;4.508;2022-10-19T01:01:05;13.00;;;3.97;;
49029;SDS011;43337;52.070;4.508;2022-10-19T01:03:34;9.88;;;3.65;;
49029;SDS011;43337;52.070;4.508;2022-10-19T01:05:59;9.90;;;4.40;;
49029;SDS011;43337;52.070;4.508;2022-10-19T01:08:25;8.95;;;4.10;;
49029;SDS011;43337;52.070;4.508;2022-10-19T01:10:56;8.18;;;3.60;;
49029;SDS011;43337;52.070;4.508;2022-10-19T01:14:03;10.30;;;4.88;;
49029;SDS011;43337;52.070;4.508;2022-10-19T01:16:41;9.88;;;3.80;;
49029;SDS011;43337;52.070;4.508;2022-10-19T01:19:53;7.60;;;3.63;;
49029;SDS011;43337;52.070;4.508;2022-10-19T01:25:17;10.02;;;4.38;;
49029;SDS011;43337;52.070;4.508;2022-10-19T01:28:08;8.63;;;3.30;;
49029;SDS011;43337;52.070;4.508;2022-10-19T01:30:41;11.52;;;4.22;;
49029;SDS011;43337;52.070;4.508;2022-10-19T01:33:38;7.20;;;3.67;;
49029;SDS011;43337;52.070;4.508;2022-10-19T01:36:08;10.77;;;3.80;;
49029;SDS011;43337;52.070;4.508;2022-10-19T01:44:12;7.80;;;3.80;;
49029;SDS011;43337;52.070;4.508;2022-10-19T01:46:49;8.60;;;4.00;;
49029;SDS011;43337;52.070;4.508;2022-10-19T01:49:24;11.02;;;4.07;;
49029;SDS011;43337;52.070;4.508;2022-10-19T01:51:54;13.18;;;4.20;;
49029;SDS011;43337;52.070;4.508;2022-10-19T01:54:24;9.10;;;4.03;;
49029;SDS011;43337;52.070;4.508;2022-10-19T01:56:54;13.48;;;4.28;;
49029;SDS011;43337;52.070;4.508;2022-10-19T01:59:24;14.38;;;4.40;;
49029;SDS011;43337;52.070;4.508;2022-10-19T02:01:51;8.23;;;4.28;;
49029;SDS011;43337;52.070;4.508;2022-10-19T02:04:19;9.15;;;3.67;;
49029;SDS011;43337;52.070;4.508;2022-10-19T02:06:47;11.00;;;4.03;;
49029;SDS011;43337;52.070;4.508;2022-10-19T02:09:15;12.25;;;4.47;;
49029;SDS011;43337;52.070;4.508;2022-10-19T02:11:43;9.77;;;3.83;;
49029;SDS011;43337;52.070;4.508;2022-10-19T02:14:22;10.13;;;3.70;;
49029;SDS011;43337;52.070;4.508;2022-10-19T02:16:52;12.55;;;4.53;;
49029;SDS011;43337;52.070;4.508;2022-10-19T02:19:23;8.50;;;3.90;;
49029;SDS011;43337;52.070;4.508;2022-10-19T02:21:49;13.13;;;4.38;;
49029;SDS011;43337;52.070;4.508;2022-10-19T02:24:15;10.50;;;4.22;;
49029;SDS011;43337;52.070;4.508;2022-10-19T02:26:41;11.60;;;4.13;;
49029;SDS011;43337;52.070;4.508;2022-10-19T02:29:06;8.80;;;3.90;;
49029;SDS011;43337;52.070;4.508;2022-10-19T02:31:33;10.27;;;4.45;;
49029;SDS011;43337;52.070;4.508;2022-10-19T02:33:59;10.52;;;3.88;;
49029;SDS011;43337;52.070;4.508;2022-10-19T02:36:25;9.18;;;4.40;;
49029;SDS011;43337;52.070;4.508;2022-10-19T02:38:50;11.68;;;4.30;;
49029;SDS011;43337;52.070;4.508;2022-10-19T02:41:23;10.88;;;4.03;;
49029;SDS011;43337;52.070;4.508;2022-10-19T02:43:57;8.40;;;3.90;;
49029;SDS011;43337;52.070;4.508;2022-10-19T02:48:59;7.75;;;3.90;;
49029;SDS011;43337;52.070;4.508;2022-10-19T02:51:27;11.10;;;4.57;;
49029;SDS011;43337;52.070;4.508;2022-10-19T02:54:00;8.88;;;4.15;;
49029;SDS011;43337;52.070;4.508;2022-10-19T02:56:27;10.85;;;4.28;;
49029;SDS011;43337;52.070;4.508;2022-10-19T02:58:53;12.38;;;4.38;;
49029;SDS011;43337;52.070;4.508;2022-10-19T03:01:19;11.73;;;4.70;;
49029;SDS011;43337;52.070;4.508;2022-10-19T03:03:44;7.07;;;4.30;;
49029;SDS011;43337;52.070;4.508;2022-10-19T03:06:10;8.73;;;4.90;;
49029;SDS011;43337;52.070;4.508;2022-10-19T03:08:36;11.30;;;4.10;;
49029;SDS011;43337;52.070;4.508;2022-10-19T03:11:01;10.75;;;5.80;;
49029;SDS011;43337;52.070;4.508;2022-10-19T03:13:26;9.13;;;4.35;;
49029;SDS011;43337;52.070;4.508;2022-10-19T03:15:52;11.00;;;4.70;;
49029;SDS011;43337;52.070;4.508;2022-10-19T03:18:17;11.88;;;4.82;;
49029;SDS011;43337;52.070;4.508;2022-10-19T03:20:43;9.68;;;4.75;;
49029;SDS011;43337;52.070;4.508;2022-10-19T03:23:08;9.27;;;4.50;;
49029;SDS011;43337;52.070;4.508;2022-10-19T03:25:33;9.40;;;5.10;;
49029;SDS011;43337;52.070;4.508;2022-10-19T03:27:59;9.85;;;4.90;;
49029;SDS011;43337;52.070;4.508;2022-10-19T03:30:24;11.52;;;5.30;;
49029;SDS011;43337;52.070;4.508;2022-10-19T03:32:50;10.02;;;5.38;;
49029;SDS011;43337;52.070;4.508;2022-10-19T03:35:15;10.60;;;5.55;;
49029;SDS011;43337;52.070;4.508;2022-10-19T03:37:40;10.13;;;4.60;;
49029;SDS011;43337;52.070;4.508;2022-10-19T03:40:06;13.10;;;5.00;;
49029;SDS011;43337;52.070;4.508;2022-10-19T03:42:32;10.05;;;5.60;;
49029;SDS011;43337;52.070;4.508;2022-10-19T03:44:57;12.88;;;5.88;;
49029;SDS011;43337;52.070;4.508;2022-10-19T03:47:22;12.65;;;6.47;;
49029;SDS011;43337;52.070;4.508;2022-10-19T03:49:48;13.98;;;5.93;;
49029;SDS011;43337;52.070;4.508;2022-10-19T03:52:15;9.73;;;5.53;;
49029;SDS011;43337;52.070;4.508;2022-10-19T03:54:41;10.75;;;5.53;;
49029;SDS011;43337;52.070;4.508;2022-10-19T03:57:07;13.85;;;5.45;;
49029;SDS011;43337;52.070;4.508;2022-10-19T03:59:32;11.48;;;5.68;;
49029;SDS011;43337;52.070;4.508;2022-10-19T04:01:57;15.75;;;5.90;;
49029;SDS011;43337;52.070;4.508;2022-10-19T04:04:23;15.15;;;6.10;;
49029;SDS011;43337;52.070;4.508;2022-10-19T04:06:49;12.35;;;5.80;;
49029;SDS011;43337;52.070;4.508;2022-10-19T04:09:16;11.93;;;6.13;;
49029;SDS011;43337;52.070;4.508;2022-10-19T04:11:43;10.20;;;5.57;;
49029;SDS011;43337;52.070;4.508;2022-10-19T04:14:12;10.57;;;5.70;;
49029;SDS011;43337;52.070;4.508;2022-10-19T04:16:39;12.50;;;5.95;;
49029;SDS011;43337;52.070;4.508;2022-10-19T04:19:04;10.23;;;5.53;;
49029;SDS011;43337;52.070;4.508;2022-10-19T04:21:31;13.85;;;5.75;;
49029;SDS011;43337;52.070;4.508;2022-10-19T04:24:00;10.55;;;6.03;;
49029;SDS011;43337;52.070;4.508;2022-10-19T04:26:29;11.45;;;6.28;;
49029;SDS011;43337;52.070;4.508;2022-10-19T04:28:58;11.02;;;5.80;;
49029;SDS011;43337;52.070;4.508;2022-10-19T04:31:25;12.13;;;5.90;;
49029;SDS011;43337;52.070;4.508;2022-10-19T04:33:51;11.10;;;5.50;;
49029;SDS011;43337;52.070;4.508;2022-10-19T04:36:16;10.68;;;5.68;;
49029;SDS011;43337;52.070;4.508;2022-10-19T04:38:42;11.15;;;5.22;;
49029;SDS011;43337;52.070;4.508;2022-10-19T04:41:12;8.48;;;5.00;;
49029;SDS011;43337;52.070;4.508;2022-10-19T04:43:40;9.48;;;5.35;;
49029;SDS011;43337;52.070;4.508;2022-10-19T04:46:07;15.07;;;7.38;;
49029;SDS011;43337;52.070;4.508;2022-10-19T04:48:34;15.25;;;6.47;;
49029;SDS011;43337;52.070;4.508;2022-10-19T04:51:01;9.43;;;5.45;;
49029;SDS011;43337;52.070;4.508;2022-10-19T04:53:27;10.30;;;5.43;;
49029;SDS011;43337;52.070;4.508;2022-10-19T04:55:52;13.30;;;5.20;;
49029;SDS011;43337;52.070;4.508;2022-10-19T04:58:18;10.82;;;4.88;;
49029;SDS011;43337;52.070;4.508;2022-10-19T05:00:43;9.00;;;4.72;;
49029;SDS011;43337;52.070;4.508;2022-10-19T05:03:09;11.55;;;4.85;;
49029;SDS011;43337;52.070;4.508;2022-10-19T05:05:34;14.00;;;5.25;;
49029;SDS011;43337;52.070;4.508;2022-10-19T05:08:00;10.40;;;4.80;;
49029;SDS011;43337;52.070;4.508;2022-10-19T05:10:25;10.93;;;4.60;;
49029;SDS011;43337;52.070;4.508;2022-10-19T05:12:51;10.18;;;4.75;;
49029;SDS011;43337;52.070;4.508;2022-10-19T05:15:17;12.60;;;4.57;;
49029;SDS011;43337;52.070;4.508;2022-10-19T05:17:42;10.38;;;5.03;;
49029;SDS011;43337;52.070;4.508;2022-10-19T05:20:08;9.38;;;4.80;;
49029;SDS011;43337;52.070;4.508;2022-10-19T05:22:35;13.25;;;4.15;;
49029;SDS011;43337;52.070;4.508;2022-10-19T05:25:01;9.07;;;3.88;;
49029;SDS011;43337;52.070;4.508;2022-10-19T05:27:27;11.48;;;4.90;;
49029;SDS011;43337;52.070;4.508;2022-10-19T05:29:52;9.40;;;5.00;;
49029;SDS011;43337;52.070;4.508;2022-10-19T05:32:17;11.65;;;5.00;;
49029;SDS011;43337;52.070;4.508;2022-10-19T05:34:43;12.20;;;5.32;;
49029;SDS011;43337;52.070;4.508;2022-10-19T05:37:08;13.40;;;5.18;;
49029;SDS011;43337;52.070;4.508;2022-10-19T05:39:34;10.27;;;4.68;;
49029;SDS011;43337;52.070;4.508;2022-10-19T05:41:59;10.40;;;5.15;;
49029;SDS011;43337;52.070;4.508;2022-10-19T05:44:24;10.80;;;4.45;;
49029;SDS011;43337;52.070;4.508;2022-10-19T05:46:50;12.07;;;4.50;;
49029;SDS011;43337;52.070;4.508;2022-10-19T05:49:16;7.47;;;4.20;;
49029;SDS011;43337;52.070;4.508;2022-10-19T05:51:43;12.75;;;4.78;;
49029;SDS011;43337;52.070;4.508;2022-10-19T05:54:10;16.73;;;5.80;;
49029;SDS011;43337;52.070;4.508;2022-10-19T05:56:36;14.07;;;5.28;;
49029;SDS011;43337;52.070;4.508;2022-10-19T05:59:03;10.07;;;5.00;;
49029;SDS011;43337;52.070;4.508;2022-10-19T06:01:30;9.82;;;5.20;;
49029;SDS011;43337;52.070;4.508;2022-10-19T06:03:56;8.05;;;4.57;;
49029;SDS011;43337;52.070;4.508;2022-10-19T06:06:23;11.23;;;5.25;;
49029;SDS011;43337;52.070;4.508;2022-10-19T06:08:50;11.43;;;4.82;;
49029;SDS011;43337;52.070;4.508;2022-10-19T06:11:27;9.02;;;4.78;;
49029;SDS011;43337;52.070;4.508;2022-10-19T06:13:55;12.35;;;4.50;;
49029;SDS011;43337;52.070;4.508;2022-10-19T06:16:24;10.63;;;4.93;;
49029;SDS011;43337;52.070;4.508;2022-10-19T06:18:51;9.93;;;5.25;;
49029;SDS011;43337;52.070;4.508;2022-10-19T06:21:18;13.07;;;4.70;;
49029;SDS011;43337;52.070;4.508;2022-10-19T06:23:51;12.15;;;6.25;;
49029;SDS011;43337;52.070;4.508;2022-10-19T06:26:17;13.07;;;5.93;;
49029;SDS011;43337;52.070;4.508;2022-10-19T06:28:44;12.45;;;5.55;;
49029;SDS011;43337;52.070;4.508;2022-10-19T06:31:09;14.27;;;6.35;;
49029;SDS011;43337;52.070;4.508;2022-10-19T06:33:37;12.13;;;5.75;;
49029;SDS011;43337;52.070;4.508;2022-10-19T06:36:08;15.20;;;5.65;;
49029;SDS011;43337;52.070;4.508;2022-10-19T06:38:35;9.82;;;5.32;;
49029;SDS011;43337;52.070;4.508;2022-10-19T06:41:00;8.43;;;5.00;;
49029;SDS011;43337;52.070;4.508;2022-10-19T06:43:26;14.80;;;6.03;;
49029;SDS011;43337;52.070;4.508;2022-10-19T06:45:52;14.65;;;5.05;;
49029;SDS011;43337;52.070;4.508;2022-10-19T06:48:19;15.38;;;5.30;;
49029;SDS011;43337;52.070;4.508;2022-10-19T06:50:44;8.88;;;4.60;;
49029;SDS011;43337;52.070;4.508;2022-10-19T06:53:10;11.27;;;5.90;;
49029;SDS011;43337;52.070;4.508;2022-10-19T06:55:35;13.98;;;5.43;;
49029;SDS011;43337;52.070;4.508;2022-10-19T06:58:01;13.52;;;5.65;;
49029;SDS011;43337;52.070;4.508;2022-10-19T07:00:27;9.80;;;5.05;;
49029;SDS011;43337;52.070;4.508;2022-10-19T07:02:53;12.48;;;5.13;;
49029;SDS011;43337;52.070;4.508;2022-10-19T07:05:18;10.45;;;5.18;;
49029;SDS011;43337;52.070;4.508;2022-10-19T07:07:44;12.02;;;4.93;;
49029;SDS011;43337;52.070;4.508;2022-10-19T07:10:10;12.05;;;5.05;;
49029;SDS011;43337;52.070;4.508;2022-10-19T07:12:35;11.73;;;4.93;;
49029;SDS011;43337;52.070;4.508;2022-10-19T07:15:01;12.80;;;4.97;;
49029;SDS011;43337;52.070;4.508;2022-10-19T07:17:26;12.13;;;4.78;;
49029;SDS011;43337;52.070;4.508;2022-10-19T07:19:52;14.40;;;4.60;;
49029;SDS011;43337;52.070;4.508;2022-10-19T07:22:17;13.50;;;4.78;;
49029;SDS011;43337;52.070;4.508;2022-10-19T07:24:42;10.77;;;4.25;;
49029;SDS011;43337;52.070;4.508;2022-10-19T07:27:08;11.05;;;4.60;;
49029;SDS011;43337;52.070;4.508;2022-10-19T07:29:33;9.68;;;4.18;;
49029;SDS011;43337;52.070;4.508;2022-10-19T07:31:59;14.65;;;5.32;;
49029;SDS011;43337;52.070;4.508;2022-10-19T07:34:24;17.92;;;4.88;;
49029;SDS011;43337;52.070;4.508;2022-10-19T07:36:49;9.38;;;4.32;;
49029;SDS011;43337;52.070;4.508;2022-10-19T07:39:16;8.95;;;4.32;;
49029;SDS011;43337;52.070;4.508;2022-10-19T07:41:42;12.07;;;4.60;;
49029;SDS011;43337;52.070;4.508;2022-10-19T07:44:08;16.65;;;5.13;;
49029;SDS011;43337;52.070;4.508;2022-10-19T07:46:34;13.00;;;4.78;;
49029;SDS011;43337;52.070;4.508;2022-10-19T07:49:02;10.98;;;4.47;;
49029;SDS011;43337;52.070;4.508;2022-10-19T07:51:30;11.10;;;4.38;;
49029;SDS011;43337;52.070;4.508;2022-10-19T07:53:59;11.68;;;4.47;;
49029;SDS011;43337;52.070;4.508;2022-10-19T07:56:24;15.00;;;4.88;;
49029;SDS011;43337;52.070;4.508;2022-10-19T07:58:52;12.20;;;4.28;;
49029;SDS011;43337;52.070;4.508;2022-10-19T08:01:22;8.60;;;4.00;;
49029;SDS011;43337;52.070;4.508;2022-10-19T08:03:55;10.20;;;4.35;;
49029;SDS011;43337;52.070;4.508;2022-10-19T08:06:24;14.95;;;3.92;;
49029;SDS011;43337;52.070;4.508;2022-10-19T08:08:50;9.88;;;3.92;;
49029;SDS011;43337;52.070;4.508;2022-10-19T08:11:17;8.55;;;3.85;;
49029;SDS011;43337;52.070;4.508;2022-10-19T08:13:44;9.52;;;3.83;;
49029;SDS011;43337;52.070;4.508;2022-10-19T08:19:05;12.40;;;3.63;;
49029;SDS011;43337;52.070;4.508;2022-10-19T08:21:33;8.27;;;3.55;;
49029;SDS011;43337;52.070;4.508;2022-10-19T08:24:00;11.55;;;3.88;;
49029;SDS011;43337;52.070;4.508;2022-10-19T08:26:29;14.43;;;3.78;;
49029;SDS011;43337;52.070;4.508;2022-10-19T08:28:59;6.88;;;2.80;;
49029;SDS011;43337;52.070;4.508;2022-10-19T08:31:29;12.43;;;3.05;;
49029;SDS011;43337;52.070;4.508;2022-10-19T08:33:55;13.15;;;3.17;;
49029;SDS011;43337;52.070;4.508;2022-10-19T08:36:20;9.50;;;2.85;;
49029;SDS011;43337;52.070;4.508;2022-10-19T08:38:46;10.38;;;3.30;;
49029;SDS011;43337;52.070;4.508;2022-10-19T08:43:56;7.28;;;2.72;;
49029;SDS011;43337;52.070;4.508;2022-10-19T08:46:36;8.88;;;2.90;;
49029;SDS011;43337;52.070;4.508;2022-10-19T08:49:16;7.00;;;2.60;;
49029;SDS011;43337;52.070;4.508;2022-10-19T08:51:44;9.38;;;2.38;;
49029;SDS011;43337;52.070;4.508;2022-10-19T08:54:16;10.90;;;2.95;;
49029;SDS011;43337;52.070;4.508;2022-10-19T08:56:50;8.52;;;2.53;;
49029;SDS011;43337;52.070;4.508;2022-10-19T08:59:39;9.45;;;2.72;;
49029;SDS011;43337;52.070;4.508;2022-10-19T09:05:13;7.78;;;2.47;;
49029;SDS011;43337;52.070;4.508;2022-10-19T09:07:45;8.32;;;3.00;;
49029;SDS011;43337;52.070;4.508;2022-10-19T09:10:18;12.35;;;2.35;;
49029;SDS011;43337;52.070;4.508;2022-10-19T09:15:18;5.43;;;2.22;;
49029;SDS011;43337;52.070;4.508;2022-10-19T09:17:47;13.95;;;2.45;;
49029;SDS011;43337;52.070;4.508;2022-10-19T09:20:14;8.48;;;2.58;;
49029;SDS011;43337;52.070;4.508;2022-10-19T09:22:42;5.65;;;1.95;;
49029;SDS011;43337;52.070;4.508;2022-10-19T09:25:13;5.50;;;1.88;;
49029;SDS011;43337;52.070;4.508;2022-10-19T09:27:42;7.63;;;1.93;;
49029;SDS011;43337;52.070;4.508;2022-10-19T09:30:18;10.45;;;2.45;;
49029;SDS011;43337;52.070;4.508;2022-10-19T09:32:46;9.10;;;1.95;;
49029;SDS011;43337;52.070;4.508;2022-10-19T09:35:20;11.02;;;2.45;;
49029;SDS011;43337;52.070;4.508;2022-10-19T09:37:52;4.50;;;1.90;;
49029;SDS011;43337;52.070;4.508;2022-10-19T09:40:19;17.75;;;2.60;;
49029;SDS011;43337;52.070;4.508;2022-10-19T09:42:47;7.30;;;2.33;;
49029;SDS011;43337;52.070;4.508;2022-10-19T09:45:31;5.88;;;1.90;;
49029;SDS011;43337;52.070;4.508;2022-10-19T09:50:57;6.70;;;2.13;;
49029;SDS011;43337;52.070;4.508;2022-10-19T09:53:24;7.25;;;2.10;;
49029;SDS011;43337;52.070;4.508;2022-10-19T09:55:57;6.93;;;1.65;;
49029;SDS011;43337;52.070;4.508;2022-10-19T09:58:23;5.82;;;1.45;;
49029;SDS011;43337;52.070;4.508;2022-10-19T10:00:51;3.55;;;1.38;;
49029;SDS011;43337;52.070;4.508;2022-10-19T10:03:29;5.47;;;1.20;;
49029;SDS011;43337;52.070;4.508;2022-10-19T10:06:05;8.55;;;1.10;;
49029;SDS011;43337;52.070;4.508;2022-10-19T10:08:36;4.82;;;1.20;;
49029;SDS011;43337;52.070;4.508;2022-10-19T10:13:38;8.35;;;1.60;;
49029;SDS011;43337;52.070;4.508;2022-10-19T10:16:06;7.90;;;1.55;;
49029;SDS011;43337;52.070;4.508;2022-10-19T10:18:38;8.50;;;1.42;;
49029;SDS011;43337;52.070;4.508;2022-10-19T10:24:04;7.93;;;1.15;;
49029;SDS011;43337;52.070;4.508;2022-10-19T10:29:18;10.07;;;2.17;;
49029;SDS011;43337;52.070;4.508;2022-10-19T10:34:43;5.68;;;1.13;;
49029;SDS011;43337;52.070;4.508;2022-10-19T10:37:54;4.68;;;1.00;;
49029;SDS011;43337;52.070;4.508;2022-10-19T10:40:00;3.72;;;0.93;;
49029;SDS011;43337;52.070;4.508;2022-10-19T10:42:33;5.10;;;1.45;;
49029;SDS011;43337;52.070;4.508;2022-10-19T10:45:14;7.85;;;1.13;;
49029;SDS011;43337;52.070;4.508;2022-10-19T10:47:42;6.60;;;1.20;;
49029;SDS011;43337;52.070;4.508;2022-10-19T10:50:15;6.13;;;1.50;;
49029;SDS011;43337;52.070;4.508;2022-10-19T10:55:29;5.65;;;1.67;;
49029;SDS011;43337;52.070;4.508;2022-10-19T10:58:15;5.30;;;1.20;;
49029;SDS011;43337;52.070;4.508;2022-10-19T11:00:45;6.70;;;1.30;;
49029;SDS011;43337;52.070;4.508;2022-10-19T11:03:19;6.30;;;1.33;;
49029;SDS011;43337;52.070;4.508;2022-10-19T11:05:50;6.82;;;1.70;;
49029;SDS011;43337;52.070;4.508;2022-10-19T11:08:27;7.47;;;1.55;;
49029;SDS011;43337;52.070;4.508;2022-10-19T11:14:05;5.30;;;1.77;;
49029;SDS011;43337;52.070;4.508;2022-10-19T11:16:41;5.97;;;1.73;;
49029;SDS011;43337;52.070;4.508;2022-10-19T11:24:39;10.80;;;1.80;;
49029;SDS011;43337;52.070;4.508;2022-10-19T11:30:07;4.20;;;1.77;;
49029;SDS011;43337;52.070;4.508;2022-10-19T11:35:58;8.13;;;1.80;;
49029;SDS011;43337;52.070;4.508;2022-10-19T11:50:08;6.05;;;1.40;;
49029;SDS011;43337;52.070;4.508;2022-10-19T12:06:52;4.32;;;0.80;;
49029;SDS011;43337;52.070;4.508;2022-10-19T12:09:53;3.78;;;0.73;;
49029;SDS011;43337;52.070;4.508;2022-10-19T12:12:37;3.28;;;1.00;;
49029;SDS011;43337;52.070;4.508;2022-10-19T12:17:35;2.58;;;0.80;;
49029;SDS011;43337;52.070;4.508;2022-10-19T12:22:53;5.55;;;1.10;;
49029;SDS011;43337;52.070;4.508;2022-10-19T12:25:22;6.75;;;1.00;;
49029;SDS011;43337;52.070;4.508;2022-10-19T12:27:48;8.80;;;0.98;;
49029;SDS011;43337;52.070;4.508;2022-10-19T12:33:05;6.15;;;1.10;;
49029;SDS011;43337;52.070;4.508;2022-10-19T12:41:35;4.57;;;1.65;;
49029;SDS011;43337;52.070;4.508;2022-10-19T12:47:16;5.07;;;1.02;;
49029;SDS011;43337;52.070;4.508;2022-10-19T12:49:44;5.50;;;1.20;;
49029;SDS011;43337;52.070;4.508;2022-10-19T12:53:00;4.88;;;1.27;;
49029;SDS011;43337;52.070;4.508;2022-10-19T12:55:12;4.65;;;1.13;;
49029;SDS011;43337;52.070;4.508;2022-10-19T13:00:30;5.47;;;1.40;;
49029;SDS011;43337;52.070;4.508;2022-10-19T13:03:15;5.35;;;1.25;;
49029;SDS011;43337;52.070;4.508;2022-10-19T13:06:06;4.30;;;1.35;;
49029;SDS011;43337;52.070;4.508;2022-10-19T13:08:57;4.68;;;1.13;;
49029;SDS011;43337;52.070;4.508;2022-10-19T13:11:23;7.65;;;1.30;;
49029;SDS011;43337;52.070;4.508;2022-10-19T13:13:55;6.20;;;1.40;;
49029;SDS011;43337;52.070;4.508;2022-10-19T13:16:30;4.15;;;1.15;;
49029;SDS011;43337;52.070;4.508;2022-10-19T13:34:46;8.35;;;2.00;;
49029;SDS011;43337;52.070;4.508;2022-10-19T13:37:12;5.13;;;1.50;;
49029;SDS011;43337;52.070;4.508;2022-10-19T13:39:42;3.63;;;1.33;;
49029;SDS011;43337;52.070;4.508;2022-10-19T13:42:24;7.03;;;1.60;;
49029;SDS011;43337;52.070;4.508;2022-10-19T13:44:51;10.05;;;1.70;;
49029;SDS011;43337;52.070;4.508;2022-10-19T13:55:09;7.57;;;1.48;;
49029;SDS011;43337;52.070;4.508;2022-10-19T13:58:02;6.55;;;1.65;;
49029;SDS011;43337;52.070;4.508;2022-10-19T14:01:02;6.97;;;2.25;;
49029;SDS011;43337;52.070;4.508;2022-10-19T14:03:52;5.13;;;1.45;;
49029;SDS011;43337;52.070;4.508;2022-10-19T14:06:46;7.22;;;1.33;;
49029;SDS011;43337;52.070;4.508;2022-10-19T14:09:20;9.13;;;1.35;;
49029;SDS011;43337;52.070;4.508;2022-10-19T14:12:07;6.72;;;1.60;;
49029;SDS011;43337;52.070;4.508;2022-10-19T14:14:46;4.28;;;1.20;;
49029;SDS011;43337;52.070;4.508;2022-10-19T14:17:19;8.23;;;1.30;;
49029;SDS011;43337;52.070;4.508;2022-10-19T14:19:50;4.88;;;1.27;;
49029;SDS011;43337;52.070;4.508;2022-10-19T14:24:43;6.60;;;1.20;;
49029;SDS011;43337;52.070;4.508;2022-10-19T14:27:10;5.95;;;1.25;;
49029;SDS011;43337;52.070;4.508;2022-10-19T14:29:47;5.95;;;1.20;;
49029;SDS011;43337;52.070;4.508;2022-10-19T14:32:14;5.65;;;1.30;;
49029;SDS011;43337;52.070;4.508;2022-10-19T14:34:43;5.07;;;1.30;;
49029;SDS011;43337;52.070;4.508;2022-10-19T14:37:21;7.10;;;1.38;;
49029;SDS011;43337;52.070;4.508;2022-10-19T14:42:34;6.07;;;1.50;;
49029;SDS011;43337;52.070;4.508;2022-10-19T14:45:02;6.05;;;1.42;;
49029;SDS011;43337;52.070;4.508;2022-10-19T14:47:27;4.07;;;1.50;;
49029;SDS011;43337;52.070;4.508;2022-10-19T14:49:54;4.32;;;1.20;;
49029;SDS011;43337;52.070;4.508;2022-10-19T14:52:31;7.78;;;1.30;;
49029;SDS011;43337;52.070;4.508;2022-10-19T14:55:15;4.95;;;1.13;;
49029;SDS011;43337;52.070;4.508;2022-10-19T14:57:42;3.55;;;1.42;;
49029;SDS011;43337;52.070;4.508;2022-10-19T15:00:16;6.80;;;1.23;;
49029;SDS011;43337;52.070;4.508;2022-10-19T15:02:45;7.20;;;1.70;;
49029;SDS011;43337;52.070;4.508;2022-10-19T15:05:19;4.90;;;0.98;;
49029;SDS011;43337;52.070;4.508;2022-10-19T15:07:48;3.63;;;1.00;;
49029;SDS011;43337;52.070;4.508;2022-10-19T15:10:23;4.00;;;1.17;;
49029;SDS011;43337;52.070;4.508;2022-10-19T15:12:55;5.68;;;1.35;;
49029;SDS011;43337;52.070;4.508;2022-10-19T15:17:54;3.65;;;1.00;;
49029;SDS011;43337;52.070;4.508;2022-10-19T15:20:30;9.48;;;1.58;;
49029;SDS011;43337;52.070;4.508;2022-10-19T15:23:22;5.93;;;1.15;;
49029;SDS011;43337;52.070;4.508;2022-10-19T15:26:15;4.13;;;1.33;;
49029;SDS011;43337;52.070;4.508;2022-10-19T15:28:40;9.07;;;1.85;;
49029;SDS011;43337;52.070;4.508;2022-10-19T15:33:43;6.80;;;1.48;;
49029;SDS011;43337;52.070;4.508;2022-10-19T15:36:11;5.30;;;1.52;;
49029;SDS011;43337;52.070;4.508;2022-10-19T15:38:42;6.45;;;1.33;;
49029;SDS011;43337;52.070;4.508;2022-10-19T15:41:28;5.93;;;1.10;;
49029;SDS011;43337;52.070;4.508;2022-10-19T15:43:56;5.93;;;1.60;;
49029;SDS011;43337;52.070;4.508;2022-10-19T15:48:56;9.02;;;1.70;;
49029;SDS011;43337;52.070;4.508;2022-10-19T15:53:55;8.23;;;2.58;;
49029;SDS011;43337;52.070;4.508;2022-10-19T15:56:24;6.32;;;1.40;;
49029;SDS011;43337;52.070;4.508;2022-10-19T15:58:51;8.68;;;1.52;;
49029;SDS011;43337;52.070;4.508;2022-10-19T16:01:19;4.63;;;1.48;;
49029;SDS011;43337;52.070;4.508;2022-10-19T16:03:53;7.78;;;1.90;;
49029;SDS011;43337;52.070;4.508;2022-10-19T16:06:21;6.32;;;1.45;;
49029;SDS011;43337;52.070;4.508;2022-10-19T16:08:49;8.27;;;1.52;;
49029;SDS011;43337;52.070;4.508;2022-10-19T16:11:22;6.07;;;1.80;;
49029;SDS011;43337;52.070;4.508;2022-10-19T16:13:48;6.65;;;1.77;;
49029;SDS011;43337;52.070;4.508;2022-10-19T16:16:24;7.18;;;1.70;;
49029;SDS011;43337;52.070;4.508;2022-10-19T16:18:53;6.22;;;1.67;;
49029;SDS011;43337;52.070;4.508;2022-10-19T16:21:20;7.07;;;1.70;;
49029;SDS011;43337;52.070;4.508;2022-10-19T16:23:47;7.05;;;2.08;;
49029;SDS011;43337;52.070;4.508;2022-10-19T16:26:13;7.60;;;2.05;;
49029;SDS011;43337;52.070;4.508;2022-10-19T16:28:39;7.20;;;1.48;;
49029;SDS011;43337;52.070;4.508;2022-10-19T16:31:05;9.80;;;2.00;;
49029;SDS011;43337;52.070;4.508;2022-10-19T16:33:32;8.02;;;1.73;;
49029;SDS011;43337;52.070;4.508;2022-10-19T16:35:57;7.10;;;1.52;;
49029;SDS011;43337;52.070;4.508;2022-10-19T16:38:23;5.15;;;1.67;;
49029;SDS011;43337;52.070;4.508;2022-10-19T16:40:48;10.82;;;2.10;;
49029;SDS011;43337;52.070;4.508;2022-10-19T16:43:14;5.68;;;1.65;;
49029;SDS011;43337;52.070;4.508;2022-10-19T16:45:43;8.75;;;1.33;;
49029;SDS011;43337;52.070;4.508;2022-10-19T16:48:11;6.80;;;1.42;;
49029;SDS011;43337;52.070;4.508;2022-10-19T16:50:37;7.55;;;1.45;;
49029;SDS011;43337;52.070;4.508;2022-10-19T16:53:04;8.25;;;1.38;;
49029;SDS011;43337;52.070;4.508;2022-10-19T16:55:34;5.18;;;1.63;;
49029;SDS011;43337;52.070;4.508;2022-10-19T16:57:59;5.50;;;1.42;;
49029;SDS011;43337;52.070;4.508;2022-10-19T17:00:25;4.57;;;1.48;;
49029;SDS011;43337;52.070;4.508;2022-10-19T17:02:50;7.65;;;1.63;;
49029;SDS011;43337;52.070;4.508;2022-10-19T17:05:15;5.65;;;1.40;;
49029;SDS011;43337;52.070;4.508;2022-10-19T17:07:41;11.60;;;2.75;;
49029;SDS011;43337;52.070;4.508;2022-10-19T17:10:06;10.60;;;1.98;;
49029;SDS011;43337;52.070;4.508;2022-10-19T17:12:32;4.47;;;1.45;;
49029;SDS011;43337;52.070;4.508;2022-10-19T17:14:57;4.93;;;1.50;;
49029;SDS011;43337;52.070;4.508;2022-10-19T17:17:23;8.38;;;2.10;;
49029;SDS011;43337;52.070;4.508;2022-10-19T17:19:48;5.82;;;1.70;;
49029;SDS011;43337;52.070;4.508;2022-10-19T17:22:13;4.00;;;1.60;;